createdAt,value
2022-11-13T00:02:10.232Z,101031.41
2022-11-13T00:04:37.892Z,101036.69
2022-11-13T00:07:05.604Z,101028.81
2022-11-13T00:09:33.315Z,101031.53
2022-11-13T00:12:01.031Z,101029.03
2022-11-13T00:14:30.058Z,101032.69
2022-11-13T00:16:57.691Z,101035.47
2022-11-13T00:19:25.413Z,101029.47
2022-11-13T00:21:55.017Z,101027.88
2022-11-13T00:24:22.673Z,101024.59
2022-11-13T00:26:50.372Z,101024.72
2022-11-13T00:29:18.450Z,101024.91
2022-11-13T00:31:46.068Z,101024.19
2022-11-13T00:34:40.989Z,101021.69
2022-11-13T00:37:01.860Z,101015.69
2022-11-13T00:39:29.457Z,101016.69
2022-11-13T00:41:57.036Z,101021.09
2022-11-13T00:44:24.725Z,101014.97
2022-11-13T00:46:52.329Z,101014.19
2022-11-13T00:49:25.280Z,101012.44
2022-11-13T00:51:52.922Z,101015.22
2022-11-13T00:54:20.537Z,101001.06
2022-11-13T00:56:48.139Z,101005.44
2022-11-13T00:59:15.818Z,101002.69
2022-11-13T01:01:43.729Z,100988.47
2022-11-13T01:04:11.331Z,100993.59
2022-11-13T01:06:38.993Z,100996.97
2022-11-13T01:09:06.588Z,100992.19
2022-11-13T01:11:34.243Z,100992.75
2022-11-13T01:14:01.896Z,100986.34
2022-11-13T01:16:29.464Z,100990.56
2022-11-13T01:18:57.034Z,100994.91
2022-11-13T01:21:24.646Z,100996.63
2022-11-13T01:23:52.191Z,101000.16
2022-11-13T01:26:20.795Z,100998.44
2022-11-13T01:28:48.415Z,100999.38
2022-11-13T01:31:16.805Z,100995.91
2022-11-13T01:33:44.819Z,100995.13
2022-11-13T01:36:12.411Z,100986.53
2022-11-13T01:38:42.875Z,100985.75
2022-11-13T01:41:10.455Z,100989.50
2022-11-13T01:43:38.046Z,100983.53
2022-11-13T01:46:05.621Z,100985.47
2022-11-13T01:48:33.183Z,100978.56
2022-11-13T01:51:02.507Z,100974.53
2022-11-13T01:53:30.095Z,100972.22
2022-11-13T01:55:58.072Z,100965.53
2022-11-13T01:58:25.894Z,100973.66
2022-11-13T02:00:53.648Z,100963.31
2022-11-13T02:03:21.537Z,100963.31
2022-11-13T02:05:49.146Z,100962.47
2022-11-13T02:08:16.712Z,100952.72
2022-11-13T02:10:44.243Z,100954.53
2022-11-13T02:13:11.882Z,100947.56
2022-11-13T02:15:40.997Z,100942.38
2022-11-13T02:18:08.896Z,100945.25
2022-11-13T02:20:36.517Z,100947.16
2022-11-13T02:23:04.856Z,100946.53
2022-11-13T02:25:32.385Z,100940.50
2022-11-13T02:28:00.277Z,100938.06
2022-11-13T02:30:27.921Z,100945.25
2022-11-13T02:32:55.598Z,100941.91
2022-11-13T02:35:23.183Z,100939.38
2022-11-13T02:37:50.767Z,100942.16
2022-11-13T02:40:18.690Z,100935.28
2022-11-13T02:42:46.313Z,100942.41
2022-11-13T02:45:13.981Z,100942.56
2022-11-13T02:47:41.524Z,100939.09
2022-11-13T02:50:09.180Z,100938.25
2022-11-13T02:52:36.952Z,100941.00
2022-11-13T02:55:04.536Z,100936.72
2022-11-13T02:57:32.114Z,100929.78
2022-11-13T02:59:59.679Z,100929.00
2022-11-13T03:02:27.627Z,100937.03
2022-11-13T03:05:12.903Z,100935.38
2022-11-13T03:07:41.052Z,100929.38
2022-11-13T03:10:08.646Z,100937.47
2022-11-13T03:12:36.200Z,100929.69
2022-11-13T03:15:05.610Z,100933.28
2022-11-13T03:17:33.242Z,100925.47
2022-11-13T03:20:00.787Z,100929.16
2022-11-13T03:22:28.769Z,100926.63
2022-11-13T03:24:56.324Z,100928.47
2022-11-13T03:27:26.845Z,100928.53
2022-11-13T03:29:54.412Z,100924.25
2022-11-13T03:32:21.998Z,100911.19
2022-11-13T03:34:49.530Z,100920.06
2022-11-13T03:37:17.086Z,100914.06
2022-11-13T03:39:46.090Z,100915.13
2022-11-13T03:42:13.628Z,100916.88
2022-11-13T03:44:41.614Z,100915.22
2022-11-13T03:47:09.217Z,100908.38
2022-11-13T03:49:36.778Z,100911.19
2022-11-13T03:52:04.647Z,100910.56
2022-11-13T03:54:32.233Z,100903.72
2022-11-13T03:56:59.799Z,100905.66
2022-11-13T03:59:27.337Z,100904.88
2022-11-13T04:01:54.972Z,100909.34
2022-11-13T04:04:22.567Z,100900.66
2022-11-13T04:06:50.638Z,100893.78
2022-11-13T04:09:18.264Z,100903.53
2022-11-13T04:11:45.771Z,100906.25
2022-11-13T04:14:13.294Z,100894.06
2022-11-13T04:16:41.267Z,100894.06
2022-11-13T04:19:08.840Z,100888.00
2022-11-13T04:21:36.364Z,100900.19
2022-11-13T04:24:03.942Z,100884.38
2022-11-13T04:26:31.507Z,100886.09
2022-11-13T04:29:04.598Z,100879.91
2022-11-13T04:31:32.139Z,100880.78
2022-11-13T04:33:59.728Z,100880.78
2022-11-13T04:36:27.284Z,100877.22
2022-11-13T04:38:54.809Z,100881.63
2022-11-13T04:41:40.324Z,100874.53
2022-11-13T04:44:07.870Z,100877.06
2022-11-13T04:46:35.398Z,100872.63
2022-11-13T04:49:03.402Z,100868.16
2022-11-13T04:51:31.183Z,100861.91
2022-11-13T04:53:59.126Z,100863.59
2022-11-13T04:56:28.933Z,100858.28
2022-11-13T04:58:56.505Z,100855.66
2022-11-13T05:01:24.073Z,100855.56
2022-11-13T05:03:51.674Z,100867.03
2022-11-13T05:06:19.581Z,100858.19
2022-11-13T05:08:48.330Z,100847.66
2022-11-13T05:11:15.904Z,100843.31
2022-11-13T05:13:43.457Z,100843.25
2022-11-13T05:16:11.016Z,100853.00
2022-11-13T05:18:39.017Z,100852.19
2022-11-13T05:21:07.308Z,100843.50
2022-11-13T05:23:34.870Z,100840.91
2022-11-13T05:26:02.474Z,100831.38
2022-11-13T05:28:30.317Z,100841.91
2022-11-13T05:30:58.479Z,100837.63
2022-11-13T05:33:26.483Z,100834.16
2022-11-13T05:35:54.019Z,100834.28
2022-11-13T05:38:21.593Z,100825.59
2022-11-13T05:40:49.175Z,100828.34
2022-11-13T05:43:17.113Z,100815.28
2022-11-13T05:45:46.370Z,100816.28
2022-11-13T05:48:13.972Z,100816.41
2022-11-13T05:50:41.540Z,100816.47
2022-11-13T05:53:09.066Z,100805.13
2022-11-13T05:55:37.416Z,100801.81
2022-11-13T05:58:05.041Z,100792.44
2022-11-13T06:00:32.630Z,100794.41
2022-11-13T06:03:00.214Z,100801.56
2022-11-13T06:05:27.771Z,100791.09
2022-11-13T06:07:55.670Z,100798.13
2022-11-13T06:10:24.619Z,100789.38
2022-11-13T06:12:52.172Z,100782.44
2022-11-13T06:15:19.745Z,100785.22
2022-11-13T06:17:47.641Z,100784.38
2022-11-13T06:20:15.571Z,100788.00
2022-11-13T06:22:44.747Z,100790.69
2022-11-13T06:25:12.352Z,100786.41
2022-11-13T06:27:39.869Z,100789.97
2022-11-13T06:30:07.454Z,100788.28
2022-11-13T06:32:35.435Z,100789.22
2022-11-13T06:35:03.988Z,100786.63
2022-11-13T06:37:34.587Z,100783.09
2022-11-13T06:40:02.475Z,100778.69
2022-11-13T06:42:30.034Z,100777.75
2022-11-13T06:44:57.960Z,100773.28
2022-11-13T06:47:26.169Z,100761.00
2022-11-13T06:49:53.765Z,100767.97
2022-11-13T06:52:21.334Z,100767.91
2022-11-13T06:54:48.904Z,100768.72
2022-11-13T06:57:16.571Z,100761.59
2022-11-13T06:59:44.741Z,100770.28
2022-11-13T07:02:12.771Z,100770.28
2022-11-13T07:04:40.334Z,100760.69
2022-11-13T07:07:08.036Z,100766.03
2022-11-13T07:09:36.012Z,100757.19
2022-11-13T07:12:03.619Z,100756.28
2022-11-13T07:14:31.218Z,100757.06
2022-11-13T07:17:09.086Z,100748.06
2022-11-13T07:19:38.209Z,100747.88
2022-11-13T07:22:05.878Z,100750.28
2022-11-13T07:24:33.474Z,100741.38
2022-11-13T07:27:01.052Z,100742.13
2022-11-13T07:29:28.672Z,100730.56
2022-11-13T07:31:56.677Z,100729.50
2022-11-13T07:34:24.290Z,100730.09
2022-11-13T07:36:51.912Z,100731.56
2022-11-13T07:39:19.500Z,100740.88
2022-11-13T07:41:47.089Z,100732.56
2022-11-13T07:44:40.133Z,100726.91
2022-11-13T07:47:05.812Z,100735.44
2022-11-13T07:49:33.450Z,100733.44
2022-11-13T07:52:01.082Z,100731.47
2022-11-13T07:54:29.097Z,100737.19
2022-11-13T07:56:56.744Z,100731.66
2022-11-13T07:59:25.868Z,100725.31
2022-11-13T08:01:53.549Z,100726.09
2022-11-13T08:04:21.684Z,100721.63
2022-11-13T08:06:49.779Z,100721.47
2022-11-13T08:09:17.502Z,100713.50
2022-11-13T08:11:47.387Z,100712.56
2022-11-13T08:14:14.979Z,100706.38
2022-11-13T08:16:42.661Z,100707.97
2022-11-13T08:19:10.727Z,100705.88
2022-11-13T08:21:38.464Z,100710.75
2022-11-13T08:24:07.533Z,100705.03
2022-11-13T08:26:35.554Z,100708.91
2022-11-13T08:29:03.307Z,100708.28
2022-11-13T08:31:32.494Z,100702.38
2022-11-13T08:34:00.343Z,100698.53
2022-11-13T08:36:27.992Z,100694.69
2022-11-13T08:38:55.646Z,100695.25
2022-11-13T08:41:23.402Z,100691.53
2022-11-13T08:43:51.380Z,100689.59
2022-11-13T08:46:19.064Z,100683.78
2022-11-13T08:48:48.944Z,100674.53
2022-11-13T08:51:16.800Z,100667.25
2022-11-13T08:53:44.541Z,100666.78
2022-11-13T08:56:12.421Z,100657.69
2022-11-13T08:58:40.191Z,100659.16
2022-11-13T09:01:10.678Z,100657.91
2022-11-13T09:03:38.720Z,100657.44
2022-11-13T09:06:06.504Z,100658.91
2022-11-13T09:08:34.388Z,100654.16
2022-11-13T09:11:02.252Z,100653.81
2022-11-13T09:13:31.491Z,100662.22
2022-11-13T09:15:59.299Z,100659.00
2022-11-13T09:18:27.464Z,100659.19
2022-11-13T09:20:55.772Z,100648.63
2022-11-13T09:23:23.469Z,100645.91
2022-11-13T09:25:52.335Z,100639.88
2022-11-13T09:28:20.064Z,100640.72
2022-11-13T09:30:47.856Z,100631.88
2022-11-13T09:33:16.550Z,100632.78
2022-11-13T09:35:44.444Z,100635.50
2022-11-13T09:38:14.656Z,100628.47
2022-11-13T09:40:43.097Z,100628.34
2022-11-13T09:43:10.931Z,100623.69
2022-11-13T09:45:38.789Z,100628.56
2022-11-13T09:48:06.722Z,100621.34
2022-11-13T09:50:36.365Z,100619.97
2022-11-13T09:53:04.180Z,100609.41
2022-11-13T09:55:32.455Z,100601.69
2022-11-13T09:58:01.096Z,100599.91
2022-11-13T10:00:28.942Z,100595.47
2022-11-13T10:02:59.049Z,100596.00
2022-11-13T10:05:26.928Z,100577.84
2022-11-13T10:07:54.667Z,100578.16
2022-11-13T10:10:22.646Z,100571.19
2022-11-13T10:12:50.446Z,100570.91
2022-11-13T10:15:19.687Z,100567.19
2022-11-13T10:17:48.063Z,100559.94
2022-11-13T10:20:16.886Z,100551.28
2022-11-13T10:22:45.400Z,100563.13
2022-11-13T10:25:13.546Z,100563.97
2022-11-13T10:27:43.804Z,100555.50
2022-11-13T10:30:12.379Z,100560.69
2022-11-13T10:32:40.341Z,100561.81
2022-11-13T10:35:08.658Z,100571.38
2022-11-13T10:37:36.465Z,100563.03
2022-11-13T10:40:05.909Z,100552.19
2022-11-13T10:42:35.809Z,100548.38
2022-11-13T10:45:06.997Z,100555.19
2022-11-13T10:48:02.621Z,100546.16
2022-11-13T10:50:26.790Z,100541.09
2022-11-13T10:52:54.721Z,100527.09
2022-11-13T10:55:22.591Z,100524.63
2022-11-13T10:57:56.167Z,100513.09
2022-11-13T11:00:24.652Z,100508.13
2022-11-13T11:02:55.353Z,100509.78
2022-11-13T11:05:23.337Z,100510.88
2022-11-13T11:07:51.983Z,100515.63
2022-11-13T11:10:19.741Z,100503.97
2022-11-13T11:12:47.531Z,100505.00
2022-11-13T11:15:17.179Z,100495.41
2022-11-13T11:17:45.089Z,100502.72
2022-11-13T11:20:13.627Z,100501.34
2022-11-13T11:22:41.982Z,100489.88
2022-11-13T11:25:10.421Z,100486.38
2022-11-13T11:27:40.295Z,100482.13
2022-11-13T11:30:08.225Z,100476.16
2022-11-13T11:32:36.124Z,100468.69
2022-11-13T11:35:03.992Z,100474.94
2022-11-13T11:37:31.920Z,100473.66
2022-11-13T11:39:59.751Z,100472.78
2022-11-13T11:42:27.480Z,100472.22
2022-11-13T11:44:56.157Z,100465.72
2022-11-13T11:47:24.156Z,100459.91
2022-11-13T11:49:52.024Z,100469.53
2022-11-13T11:52:19.972Z,100450.13
2022-11-13T11:54:47.797Z,100440.88
2022-11-13T11:57:15.936Z,100452.91
2022-11-13T11:59:43.923Z,100450.03
2022-11-13T12:02:11.736Z,100436.66
2022-11-13T12:04:41.393Z,100435.94
2022-11-13T12:07:09.668Z,100436.78
2022-11-13T12:09:38.155Z,100431.16
2022-11-13T12:12:06.067Z,100423.69
2022-11-13T12:14:34.098Z,100424.97
2022-11-13T12:17:01.940Z,100419.44
2022-11-13T12:19:29.947Z,100415.63
2022-11-13T12:21:58.297Z,100418.31
2022-11-13T12:24:26.257Z,100407.41
2022-11-13T12:26:54.072Z,100408.41
2022-11-13T12:29:25.313Z,100407.16
2022-11-13T12:31:53.230Z,100401.50
2022-11-13T12:34:20.945Z,100401.81
2022-11-13T12:36:48.980Z,100402.94
2022-11-13T12:39:16.837Z,100398.56
2022-11-13T12:41:45.114Z,100390.38
2022-11-13T12:44:13.027Z,100390.06
2022-11-13T12:46:41.412Z,100386.38
2022-11-13T12:49:09.214Z,100384.25
2022-11-13T12:51:37.636Z,100372.94
2022-11-13T12:54:06.054Z,100369.22
2022-11-13T12:56:33.969Z,100360.97
2022-11-13T12:59:32.086Z,100360.50
2022-11-13T13:01:50.270Z,100352.88
2022-11-13T13:04:18.276Z,100350.84
2022-11-13T13:06:46.391Z,100353.75
2022-11-13T13:09:14.839Z,100355.94
2022-11-13T13:11:42.749Z,100344.34
2022-11-13T13:14:10.634Z,100344.50
2022-11-13T13:16:39.735Z,100339.34
2022-11-13T13:19:07.780Z,100342.94
2022-11-13T13:21:35.972Z,100336.13
2022-11-13T13:24:03.857Z,100323.44
2022-11-13T13:26:31.637Z,100327.41
2022-11-13T13:29:02.831Z,100322.41
2022-11-13T13:31:30.760Z,100320.88
2022-11-13T13:33:59.537Z,100319.28
2022-11-13T13:36:27.410Z,100321.47
2022-11-13T13:38:55.295Z,100318.38
2022-11-13T13:41:23.345Z,100313.44
2022-11-13T13:43:51.245Z,100308.28
2022-11-13T13:46:20.417Z,100300.81
2022-11-13T13:48:48.482Z,100302.75
2022-11-13T13:51:16.389Z,100298.53
2022-11-13T13:53:45.454Z,100300.50
2022-11-13T13:56:13.785Z,100297.38
2022-11-13T13:58:41.978Z,100297.25
2022-11-13T14:01:18.958Z,100298.75
2022-11-13T14:03:47.383Z,100290.13
2022-11-13T14:06:15.150Z,100289.22
2022-11-13T14:08:43.561Z,100290.78
2022-11-13T14:11:11.693Z,100283.50
2022-11-13T14:13:39.462Z,100288.00
2022-11-13T14:16:07.404Z,100280.09
2022-11-13T14:18:35.755Z,100286.34
2022-11-13T14:21:03.604Z,100284.25
2022-11-13T14:23:31.398Z,100278.88
2022-11-13T14:25:59.329Z,100278.25
2022-11-13T14:28:28.165Z,100279.94
2022-11-13T14:30:56.082Z,100276.00
2022-11-13T14:33:24.460Z,100266.06
2022-11-13T14:35:52.480Z,100274.50
2022-11-13T14:38:20.643Z,100266.41
2022-11-13T14:40:49.255Z,100266.41
2022-11-13T14:43:17.453Z,100268.63
2022-11-13T14:45:45.432Z,100273.84
2022-11-13T14:48:13.511Z,100263.09
2022-11-13T14:50:41.380Z,100262.63
2022-11-13T14:53:10.132Z,100262.91
2022-11-13T14:55:38.258Z,100266.00
2022-11-13T14:58:07.080Z,100269.44
2022-11-13T15:00:35.038Z,100275.97
2022-11-13T15:03:03.251Z,100274.13
2022-11-13T15:05:33.608Z,100268.22
2022-11-13T15:08:01.527Z,100267.25
2022-11-13T15:10:30.192Z,100277.84
2022-11-13T15:12:58.101Z,100273.00
2022-11-13T15:15:25.974Z,100260.00
2022-11-13T15:17:54.132Z,100257.09
2022-11-13T15:20:22.395Z,100261.13
2022-11-13T15:22:51.019Z,100260.66
2022-11-13T15:25:18.870Z,100249.34
2022-11-13T15:27:46.814Z,100255.16
2022-11-13T15:30:14.693Z,100253.81
2022-11-13T15:32:42.702Z,100255.88
2022-11-13T15:35:11.120Z,100248.16
2022-11-13T15:37:39.333Z,100251.88
2022-11-13T15:40:07.252Z,100245.69
2022-11-13T15:42:36.245Z,100255.47
2022-11-13T15:45:06.172Z,100241.31
2022-11-13T15:47:35.299Z,100245.69
2022-11-13T15:50:20.438Z,100245.88
2022-11-13T15:52:48.504Z,100238.03
2022-11-13T15:55:16.349Z,100238.06
2022-11-13T15:57:44.538Z,100230.94
2022-11-13T16:00:12.669Z,100228.25
2022-11-13T16:02:41.541Z,100229.00
2022-11-13T16:05:12.240Z,100228.16
2022-11-13T16:07:42.287Z,100229.28
2022-11-13T16:10:10.774Z,100222.34
2022-11-13T16:12:38.593Z,100214.22
2022-11-13T16:15:06.529Z,100222.19
2022-11-13T16:17:34.433Z,100218.56
2022-11-13T16:20:02.275Z,100215.63
2022-11-13T16:22:30.674Z,100216.34
2022-11-13T16:24:58.991Z,100213.66
2022-11-13T16:27:26.896Z,100206.72
2022-11-13T16:29:59.105Z,100209.22
2022-11-13T16:32:30.180Z,100213.66
2022-11-13T16:34:58.298Z,100215.44
2022-11-13T16:37:26.167Z,100221.44
2022-11-13T16:39:54.031Z,100218.50
2022-11-13T16:42:22.469Z,100220.16
2022-11-13T16:44:51.278Z,100220.09
2022-11-13T16:47:19.632Z,100217.34
2022-11-13T16:49:47.588Z,100217.25
2022-11-13T16:52:15.580Z,100216.94
2022-11-13T16:54:43.955Z,100216.56
2022-11-13T16:57:11.957Z,100219.31
2022-11-13T16:59:39.657Z,100207.72
2022-11-13T17:02:07.597Z,100206.97
2022-11-13T17:04:35.625Z,100203.06
2022-11-13T17:07:03.947Z,100192.22
2022-11-13T17:09:31.919Z,100190.97
2022-11-13T17:12:00.287Z,100190.66
2022-11-13T17:14:28.101Z,100185.13
2022-11-13T17:16:55.944Z,100188.25
2022-11-13T17:19:23.987Z,100182.72
2022-11-13T17:21:51.695Z,100187.91
2022-11-13T17:24:19.870Z,100179.75
2022-11-13T17:26:47.899Z,100181.44
2022-11-13T17:29:16.065Z,100183.00
2022-11-13T17:31:43.827Z,100186.38
2022-11-13T17:34:11.711Z,100192.31
2022-11-13T17:36:40.070Z,100182.25
2022-11-13T17:39:08.001Z,100191.56
2022-11-13T17:41:37.607Z,100181.44
2022-11-13T17:44:05.420Z,100179.31
2022-11-13T17:46:33.403Z,100184.91
2022-11-13T17:49:02.307Z,100179.03
2022-11-13T17:51:30.607Z,100174.91
2022-11-13T17:53:58.664Z,100169.88
2022-11-13T17:56:26.799Z,100174.34
2022-11-13T17:58:54.518Z,100178.78
2022-11-13T18:01:22.965Z,100177.28
2022-11-13T18:03:50.934Z,100168.69
2022-11-13T18:06:19.962Z,100170.78
2022-11-13T18:08:49.573Z,100178.16
2022-11-13T18:11:17.624Z,100173.00
2022-11-13T18:13:46.477Z,100170.53
2022-11-13T18:16:14.567Z,100165.44
2022-11-13T18:18:42.491Z,100163.00
2022-11-13T18:21:22.565Z,100160.59
2022-11-13T18:23:51.432Z,100162.72
2022-11-13T18:26:19.392Z,100164.81
2022-11-13T18:28:47.260Z,100165.84
2022-11-13T18:31:17.180Z,100164.44
2022-11-13T18:33:44.908Z,100153.41
2022-11-13T18:36:13.064Z,100169.75
2022-11-13T18:38:41.017Z,100166.75
2022-11-13T18:41:08.972Z,100154.94
2022-11-13T18:43:37.959Z,100156.38
2022-11-13T18:46:05.846Z,100161.38
2022-11-13T18:48:34.133Z,100160.25
2022-11-13T18:51:02.116Z,100155.41
2022-11-13T18:53:30.462Z,100163.63
2022-11-13T18:55:58.816Z,100155.81
2022-11-13T18:58:26.656Z,100154.28
2022-11-13T19:00:54.753Z,100148.97
2022-11-13T19:03:22.745Z,100149.06
2022-11-13T19:05:50.602Z,100146.53
2022-11-13T19:08:18.637Z,100149.25
2022-11-13T19:10:46.663Z,100139.63
2022-11-13T19:13:15.016Z,100133.56
2022-11-13T19:15:43.348Z,100140.66
2022-11-13T19:18:11.682Z,100136.13
2022-11-13T19:20:39.629Z,100133.47
2022-11-13T19:23:09.341Z,100127.34
2022-11-13T19:25:37.716Z,100123.63
2022-11-13T19:28:05.695Z,100120.53
2022-11-13T19:30:33.636Z,100124.31
2022-11-13T19:33:01.578Z,100117.59
2022-11-13T19:35:29.469Z,100120.91
2022-11-13T19:37:57.744Z,100106.81
2022-11-13T19:40:25.689Z,100119.88
2022-11-13T19:42:54.213Z,100114.38
2022-11-13T19:45:23.227Z,100113.44
2022-11-13T19:47:51.098Z,100116.72
2022-11-13T19:50:19.547Z,100114.00
2022-11-13T19:52:47.750Z,100104.44
2022-11-13T19:55:15.628Z,100103.03
2022-11-13T19:57:46.009Z,100100.78
2022-11-13T20:00:14.873Z,100095.09
2022-11-13T20:02:43.172Z,100099.28
2022-11-13T20:05:11.389Z,100091.06
2022-11-13T20:07:39.331Z,100089.94
2022-11-13T20:10:07.283Z,100090.47
2022-11-13T20:12:35.314Z,100089.25
2022-11-13T20:15:03.665Z,100086.00
2022-11-13T20:17:31.563Z,100088.75
2022-11-13T20:19:59.409Z,100082.78
2022-11-13T20:22:27.302Z,100076.75
2022-11-13T20:24:55.666Z,100079.47
2022-11-13T20:27:23.885Z,100079.59
2022-11-13T20:29:51.796Z,100075.06
2022-11-13T20:32:19.687Z,100073.16
2022-11-13T20:34:49.973Z,100069.47
2022-11-13T20:37:18.039Z,100070.34
2022-11-13T20:39:46.245Z,100080.94
2022-11-13T20:42:14.156Z,100069.69
2022-11-13T20:44:42.076Z,100069.00
2022-11-13T20:47:14.316Z,100068.44
2022-11-13T20:49:42.302Z,100071.34
2022-11-13T20:52:11.487Z,100065.59
2022-11-13T20:54:39.295Z,100059.72
2022-11-13T20:57:07.257Z,100057.34
2022-11-13T20:59:35.196Z,100059.41
2022-11-13T21:02:03.198Z,100051.75
2022-11-13T21:04:31.413Z,100045.78
2022-11-13T21:06:59.499Z,100047.69
2022-11-13T21:09:27.432Z,100053.06
2022-11-13T21:11:56.670Z,100061.19
2022-11-13T21:14:24.545Z,100063.22
2022-11-13T21:16:53.012Z,100065.44
2022-11-13T21:19:22.565Z,100056.91
2022-11-13T21:21:50.494Z,100055.41
2022-11-13T21:24:18.383Z,100054.81
2022-11-13T21:26:46.279Z,100050.72
2022-11-13T21:29:15.022Z,100057.22
2022-11-13T21:31:43.048Z,100047.94
2022-11-13T21:34:10.904Z,100045.66
2022-11-13T21:36:38.930Z,100041.47
2022-11-13T21:39:06.784Z,100039.97
2022-11-13T21:41:34.619Z,100041.03
2022-11-13T21:44:03.563Z,100038.59
2022-11-13T21:46:31.416Z,100040.56
2022-11-13T21:48:59.251Z,100033.66
2022-11-13T21:51:27.590Z,100033.09
2022-11-13T21:53:56.017Z,100028.16
2022-11-13T21:56:23.837Z,100018.78
2022-11-13T21:58:51.721Z,100021.66
2022-11-13T22:01:19.613Z,100019.19
2022-11-13T22:03:47.445Z,100018.44
2022-11-13T22:06:15.753Z,100010.69
2022-11-13T22:08:43.521Z,100013.56
2022-11-13T22:11:11.310Z,100010.34
2022-11-13T22:13:41.203Z,100009.00
2022-11-13T22:16:08.846Z,100005.06
2022-11-13T22:18:36.911Z,100006.25
2022-11-13T22:21:04.674Z,100002.16
2022-11-13T22:23:32.384Z,99997.78
2022-11-13T22:26:02.264Z,100003.19
2022-11-13T22:28:30.286Z,99992.72
2022-11-13T22:30:58.567Z,99990.25
2022-11-13T22:33:26.176Z,99991.25
2022-11-13T22:35:54.243Z,99987.75
2022-11-13T22:38:21.887Z,99997.47
2022-11-13T22:40:49.578Z,99988.69
2022-11-13T22:43:17.631Z,99991.25
2022-11-13T22:45:45.389Z,99992.25
2022-11-13T22:48:13.277Z,99986.47
2022-11-13T22:50:41.064Z,99986.72
2022-11-13T22:53:08.778Z,99983.63
2022-11-13T22:55:36.866Z,99992.63
2022-11-13T22:58:05.047Z,99978.03
2022-11-13T23:00:32.771Z,99973.75
2022-11-13T23:03:03.101Z,99974.53
2022-11-13T23:05:30.833Z,99976.06
2022-11-13T23:07:58.919Z,99967.38
2022-11-13T23:10:26.563Z,99961.41
2022-11-13T23:12:54.286Z,99966.00
2022-11-13T23:15:22.038Z,99956.56
2022-11-13T23:17:49.668Z,99965.47
2022-11-13T23:20:18.142Z,99952.31
2022-11-13T23:22:45.746Z,99952.25
2022-11-13T23:25:13.419Z,99956.56
2022-11-13T23:27:41.044Z,99948.66
2022-11-13T23:30:08.714Z,99942.53
2022-11-13T23:32:36.436Z,99948.75
2022-11-13T23:35:04.132Z,99941.84
2022-11-13T23:37:31.717Z,99938.38
2022-11-13T23:40:00.707Z,99932.34
2022-11-13T23:42:53.619Z,99932.34
2022-11-13T23:45:16.225Z,99937.63
2022-11-13T23:47:43.890Z,99933.25
2022-11-13T23:50:12.373Z,99935.06
2022-11-13T23:52:39.986Z,99926.41
2022-11-13T23:55:07.608Z,99928.22
2022-11-13T23:57:35.607Z,99924.84
